createdAt,value
2022-08-02T00:00:55.565Z,1020.569214
2022-08-02T00:01:53.000Z,1020.486694
2022-08-02T00:02:48.945Z,1020.563293
2022-08-02T00:03:53.254Z,1020.638977
2022-08-02T00:04:49.191Z,1020.532166
2022-08-02T00:05:53.118Z,1020.581665
2022-08-02T00:06:47.300Z,1020.626587
2022-08-02T00:07:47.919Z,1020.503174
2022-08-02T00:08:44.083Z,1020.482605
2022-08-02T00:09:43.983Z,1020.520813
2022-08-02T00:10:40.559Z,1020.578674
2022-08-02T00:11:45.633Z,1020.585144
2022-08-02T00:12:42.157Z,1020.569336
2022-08-02T00:13:44.475Z,1020.602966
2022-08-02T00:14:37.010Z,1020.536072
2022-08-02T00:15:37.304Z,1020.617493
2022-08-02T00:16:38.578Z,1020.577454
2022-08-02T00:17:40.400Z,1020.593323
2022-08-02T00:18:37.246Z,1020.66217
2022-08-02T00:19:46.102Z,1020.641479
2022-08-02T00:20:39.311Z,1020.636719
2022-08-02T00:21:44.948Z,1020.672241
2022-08-02T00:22:41.680Z,1020.681763
2022-08-02T00:24:03.225Z,1020.65741
2022-08-02T00:24:28.099Z,1020.65741
2022-08-02T00:24:28.276Z,1020.65741
2022-08-02T00:24:41.415Z,1020.66217
2022-08-02T00:25:54.952Z,1020.609436
2022-08-02T00:25:55.030Z,1020.609436
2022-08-02T00:25:55.131Z,1020.609436
2022-08-02T00:26:40.488Z,1020.595032
2022-08-02T00:27:38.429Z,1020.628296
2022-08-02T00:28:41.000Z,1020.537415
2022-08-02T00:29:35.173Z,1020.513611
2022-08-02T00:29:50.368Z,1020.513611
2022-08-02T00:29:52.608Z,1020.513611
2022-08-02T00:30:35.237Z,1020.579102
2022-08-02T00:31:30.673Z,1020.599731
2022-08-02T00:32:31.314Z,1020.612305
2022-08-02T00:34:26.817Z,1020.564575
2022-08-02T00:34:28.313Z,1020.564575
2022-08-02T00:34:28.495Z,1020.564575
2022-08-02T00:34:33.011Z,1020.556763
2022-08-02T00:34:37.919Z,1020.556763
2022-08-02T00:35:26.376Z,1020.543823
2022-08-02T00:36:23.366Z,1020.478333
2022-08-02T00:38:21.653Z,1020.449585
2022-08-02T00:39:33.482Z,1020.483154
2022-08-02T00:39:33.955Z,1020.483154
2022-08-02T00:39:34.939Z,1020.483154
2022-08-02T00:40:31.137Z,1020.572693
2022-08-02T00:41:35.260Z,1020.556763
2022-08-02T00:43:31.512Z,1020.543884
2022-08-02T00:44:27.119Z,1020.507324
2022-08-02T00:46:02.189Z,1020.471375
2022-08-02T00:46:02.255Z,1020.471375
2022-08-02T00:46:02.546Z,1020.471375
2022-08-02T00:47:25.581Z,1020.521545
2022-08-02T00:48:24.078Z,1020.489624
2022-08-02T00:49:25.121Z,1020.481506
2022-08-02T00:50:22.241Z,1020.387634
2022-08-02T00:52:07.992Z,1020.457642
2022-08-02T00:53:48.953Z,1020.408264
2022-08-02T00:54:48.717Z,1020.433716
2022-08-02T00:55:42.982Z,1020.470642
2022-08-02T00:56:49.684Z,1020.512085
2022-08-02T00:56:49.998Z,1020.512085
2022-08-02T00:57:41.556Z,1020.457764
2022-08-02T00:58:37.893Z,1020.484924
2022-08-02T00:59:37.636Z,1020.437744
2022-08-02T01:00:37.144Z,1020.50592
2022-08-02T01:01:32.617Z,1020.559021
2022-08-02T01:02:33.156Z,1020.51239
2022-08-02T01:03:28.401Z,1020.500122
2022-08-02T01:04:32.241Z,1020.595398
2022-08-02T01:05:29.667Z,1020.501831
2022-08-02T01:06:26.156Z,1020.532227
2022-08-02T01:07:32.455Z,1020.493958
2022-08-02T01:08:29.568Z,1020.516296
2022-08-02T01:09:29.560Z,1020.524109
2022-08-02T01:10:22.272Z,1020.540039
2022-08-02T01:11:25.789Z,1020.575195
2022-08-02T01:12:20.259Z,1020.501831
2022-08-02T01:14:18.275Z,1020.551147
2022-08-02T01:15:15.638Z,1020.551147
2022-08-02T01:16:17.059Z,1020.520996
2022-08-02T01:17:13.144Z,1020.493958
2022-08-02T01:19:16.170Z,1020.409607
2022-08-02T01:20:13.927Z,1020.512939
2022-08-02T01:21:11.072Z,1020.461914
2022-08-02T01:22:14.245Z,1020.396423
2022-08-02T01:23:16.747Z,1020.371277
2022-08-02T01:24:19.966Z,1020.34729
2022-08-02T01:25:20.934Z,1020.369263
2022-08-02T01:26:16.490Z,1020.445801
2022-08-02T01:27:18.381Z,1020.333252
2022-08-02T01:28:13.774Z,1020.329651
2022-08-02T01:29:11.820Z,1020.429993
2022-08-02T01:30:18.206Z,1020.39502
2022-08-02T01:31:15.283Z,1020.398682
2022-08-02T01:32:13.689Z,1020.347229
2022-08-02T01:33:09.379Z,1020.38269
2022-08-02T01:34:12.572Z,1020.362
2022-08-02T01:35:08.186Z,1020.36969
2022-08-02T01:36:08.247Z,1020.310608
2022-08-02T01:37:03.535Z,1020.321838
2022-08-02T01:38:00.386Z,1020.37323
2022-08-02T01:39:04.075Z,1020.271301
2022-08-02T01:39:56.064Z,1020.336609
2022-08-02T01:41:00.076Z,1020.320618
2022-08-02T01:42:28.650Z,1020.289978
2022-08-02T01:43:08.165Z,1020.264893
2022-08-02T01:44:08.110Z,1020.285522
2022-08-02T01:45:08.350Z,1020.292908
2022-08-02T01:46:04.232Z,1020.285522
2022-08-02T01:47:06.871Z,1020.234131
2022-08-02T01:48:04.992Z,1020.234131
2022-08-02T01:49:02.768Z,1020.24054
2022-08-02T01:50:07.899Z,1020.196411
2022-08-02T01:51:08.528Z,1020.292236
2022-08-02T01:52:05.104Z,1020.221924
2022-08-02T01:54:00.893Z,1020.213867
2022-08-02T01:55:00.662Z,1020.271606
2022-08-02T01:55:59.093Z,1020.252258
2022-08-02T01:56:59.581Z,1020.263489
2022-08-02T01:58:56.637Z,1020.221924
2022-08-02T01:59:51.085Z,1020.268127
2022-08-02T02:00:49.028Z,1020.319275
2022-08-02T02:01:48.785Z,1020.225098
2022-08-02T02:02:46.229Z,1020.221924
2022-08-02T02:03:49.571Z,1020.309692
2022-08-02T02:04:44.729Z,1020.296814
2022-08-02T02:05:46.148Z,1020.177429
2022-08-02T02:06:43.869Z,1020.234863
2022-08-02T02:07:43.033Z,1020.255554
2022-08-02T02:08:38.794Z,1020.274536
2022-08-02T02:09:50.197Z,1020.218933
2022-08-02T02:09:51.041Z,1020.218933
2022-08-02T02:10:46.975Z,1020.237976
2022-08-02T02:12:06.256Z,1020.199707
2022-08-02T02:12:11.479Z,1020.199707
2022-08-02T02:12:14.715Z,1020.199707
2022-08-02T02:12:42.165Z,1020.229919
2022-08-02T02:13:40.686Z,1020.196411
2022-08-02T02:14:49.982Z,1020.180481
2022-08-02T02:14:51.460Z,1020.180481
2022-08-02T02:15:38.577Z,1020.16095
2022-08-02T02:16:33.641Z,1020.169312
2022-08-02T02:17:50.660Z,1020.190002
2022-08-02T02:17:52.855Z,1020.190002
2022-08-02T02:18:10.853Z,1020.190002
2022-08-02T02:18:32.377Z,1020.186401
2022-08-02T02:19:33.532Z,1020.167664
2022-08-02T02:20:31.972Z,1020.178833
2022-08-02T02:21:29.428Z,1020.19281
2022-08-02T02:22:33.011Z,1020.158142
2022-08-02T02:23:35.547Z,1020.083252
2022-08-02T02:24:28.531Z,1020.14386
2022-08-02T02:25:36.170Z,1020.147156
2022-08-02T02:25:36.453Z,1020.147156
2022-08-02T02:25:41.814Z,1020.147156
2022-08-02T02:26:30.957Z,1020.14386
2022-08-02T02:27:26.225Z,1020.21228
2022-08-02T02:28:28.909Z,1020.15332
2022-08-02T02:29:23.768Z,1020.105591
2022-08-02T02:30:23.467Z,1020.177429
2022-08-02T02:31:19.866Z,1020.086548
2022-08-02T02:32:23.071Z,1020.118408
2022-08-02T02:33:21.240Z,1020.136108
2022-08-02T02:34:23.015Z,1020.166199
2022-08-02T02:35:26.884Z,1020.188477
2022-08-02T02:36:21.921Z,1020.145508
2022-08-02T02:37:21.443Z,1020.064209
2022-08-02T02:39:16.899Z,1020.117004
2022-08-02T02:40:14.857Z,1020.080383
2022-08-02T02:41:14.142Z,1020.059692
2022-08-02T02:42:12.591Z,1020.106323
2022-08-02T02:44:07.457Z,1020.128662
2022-08-02T02:45:04.487Z,1020.050171
2022-08-02T02:46:56.439Z,1020.032593
2022-08-02T02:47:40.417Z,1020.070679
2022-08-02T02:48:37.786Z,1019.986206
2022-08-02T02:49:47.137Z,1020.03241
2022-08-02T02:50:43.288Z,1020.003906
2022-08-02T02:51:45.372Z,1019.972046
2022-08-02T02:54:30.113Z,1019.878479
2022-08-02T02:54:31.015Z,1019.878479
2022-08-02T02:54:32.170Z,1019.878479
2022-08-02T02:54:43.361Z,1019.910339
2022-08-02T02:55:39.855Z,1019.895569
2022-08-02T02:56:41.811Z,1019.887512
2022-08-02T02:57:36.361Z,1019.884399
2022-08-02T02:58:37.875Z,1019.883301
2022-08-02T02:59:33.108Z,1019.838196
2022-08-02T03:00:33.780Z,1019.825867
2022-08-02T03:01:55.353Z,1019.878174
2022-08-02T03:01:55.602Z,1019.878174
2022-08-02T03:01:56.575Z,1019.878174
2022-08-02T03:02:32.064Z,1019.747559
2022-08-02T03:03:27.954Z,1019.803589
2022-08-02T03:04:27.657Z,1019.806458
2022-08-02T03:04:55.620Z,1019.806458
2022-08-02T03:04:56.192Z,1019.806458
2022-08-02T03:05:25.887Z,1019.806458
2022-08-02T03:06:24.967Z,1019.838196
2022-08-02T03:07:29.661Z,1019.758911
2022-08-02T03:09:27.170Z,1019.756958
2022-08-02T03:10:23.537Z,1019.771729
2022-08-02T03:11:29.004Z,1019.808044
2022-08-02T03:12:32.001Z,1019.808044
2022-08-02T03:12:32.276Z,1019.808044
2022-08-02T03:13:33.047Z,1019.846863
2022-08-02T03:13:33.306Z,1019.846863
2022-08-02T03:13:37.552Z,1019.846863
2022-08-02T03:14:26.451Z,1019.800476
2022-08-02T03:15:21.239Z,1019.708191
2022-08-02T03:16:23.501Z,1019.738525
2022-08-02T03:17:16.020Z,1019.776794
2022-08-02T03:19:10.619Z,1019.751282
2022-08-02T03:20:09.737Z,1019.757751
2022-08-02T03:21:06.186Z,1019.82605
2022-08-02T03:22:10.445Z,1019.794189
2022-08-02T03:24:09.150Z,1019.860168
2022-08-02T03:25:09.493Z,1019.808655
2022-08-02T03:26:05.687Z,1019.893616
2022-08-02T03:27:09.086Z,1019.826233
2022-08-02T03:28:01.352Z,1019.893616
2022-08-02T03:29:01.772Z,1019.842041
2022-08-02T03:29:10.168Z,1019.842041
2022-08-02T03:30:00.380Z,1019.912231
2022-08-02T03:30:56.019Z,1019.936462
2022-08-02T03:31:53.267Z,1019.912231
2022-08-02T03:32:56.561Z,1019.851746
2022-08-02T03:33:50.830Z,1019.823425
2022-08-02T03:34:52.392Z,1019.899902
2022-08-02T03:36:37.329Z,1019.862793
2022-08-02T03:37:19.537Z,1019.84668
2022-08-02T03:38:16.642Z,1019.767273
2022-08-02T03:39:16.045Z,1019.738403
2022-08-02T03:40:12.359Z,1019.755981
2022-08-02T03:41:11.956Z,1019.681763
2022-08-02T03:42:10.694Z,1019.668579
2022-08-02T03:42:15.661Z,1019.668579
2022-08-02T03:44:03.573Z,1019.649902
2022-08-02T03:45:08.723Z,1019.593811
2022-08-02T03:45:59.849Z,1019.613159
2022-08-02T03:46:57.432Z,1019.58905
2022-08-02T03:48:02.869Z,1019.629211
2022-08-02T03:48:33.802Z,1019.629211
2022-08-02T03:48:33.803Z,1019.629211
2022-08-02T03:49:02.503Z,1019.563904
2022-08-02T03:50:04.592Z,1019.63031
2022-08-02T03:50:57.853Z,1019.638733
2022-08-02T03:51:57.762Z,1019.63031
2022-08-02T03:52:55.685Z,1019.684448
2022-08-02T03:53:57.809Z,1019.737488
2022-08-02T03:54:53.195Z,1019.743896
2022-08-02T03:55:56.008Z,1019.750183
2022-08-02T03:56:48.890Z,1019.714661
2022-08-02T03:57:45.046Z,1019.793152
2022-08-02T03:58:49.272Z,1019.707214
2022-08-02T03:59:42.254Z,1019.764587
2022-08-02T04:00:43.006Z,1019.748657
2022-08-02T04:01:39.522Z,1019.814087
2022-08-02T04:02:42.800Z,1019.821838
2022-08-02T04:03:40.930Z,1019.841064
2022-08-02T04:04:47.172Z,1019.809265
2022-08-02T04:06:01.016Z,1019.785217
2022-08-02T04:06:03.367Z,1019.785217
2022-08-02T04:06:04.053Z,1019.785217
2022-08-02T04:06:44.703Z,1019.772522
2022-08-02T04:08:42.937Z,1019.75177
2022-08-02T04:09:35.365Z,1019.77887
2022-08-02T04:10:40.197Z,1019.765686
2022-08-02T04:11:34.605Z,1019.796326
2022-08-02T04:12:37.029Z,1019.785339
2022-08-02T04:14:43.373Z,1019.748169
2022-08-02T04:15:26.441Z,1019.800659
2022-08-02T04:16:25.451Z,1019.77356
2022-08-02T04:17:26.730Z,1019.765564
2022-08-02T04:18:29.680Z,1019.757751
2022-08-02T04:19:34.251Z,1019.697571
2022-08-02T04:20:32.395Z,1019.765686
2022-08-02T04:21:48.593Z,1019.818787
2022-08-02T04:21:51.134Z,1019.818787
2022-08-02T04:21:51.201Z,1019.818787
2022-08-02T04:23:36.023Z,1019.824585
2022-08-02T04:24:34.381Z,1019.840515
2022-08-02T04:25:40.595Z,1019.813477
2022-08-02T04:26:37.187Z,1019.833008
2022-08-02T04:27:50.478Z,1019.861206
2022-08-02T04:27:50.596Z,1019.861206
2022-08-02T04:29:33.556Z,1019.89624
2022-08-02T04:30:35.476Z,1019.800476
2022-08-02T04:31:33.710Z,1019.832336
2022-08-02T04:32:38.338Z,1019.862305
2022-08-02T04:33:35.998Z,1019.865845
2022-08-02T04:34:37.374Z,1019.926392
2022-08-02T04:35:34.386Z,1019.878662
2022-08-02T04:36:42.433Z,1019.87384
2022-08-02T04:37:36.923Z,1019.897888
2022-08-02T04:38:39.132Z,1019.908936
2022-08-02T04:39:35.277Z,1019.927979
2022-08-02T04:40:36.692Z,1019.923157
2022-08-02T04:41:34.751Z,1019.845276
2022-08-02T04:41:44.027Z,1019.845276
2022-08-02T04:43:37.471Z,1019.864258
2022-08-02T04:44:41.715Z,1019.891418
2022-08-02T04:45:37.972Z,1019.813293
2022-08-02T04:46:38.564Z,1019.840454
2022-08-02T04:48:37.467Z,1019.842102
2022-08-02T04:49:40.419Z,1019.816345
2022-08-02T04:50:43.126Z,1019.870544
2022-08-02T04:51:44.943Z,1019.807922
2022-08-02T04:52:45.925Z,1019.862183
2022-08-02T04:53:41.041Z,1019.839844
2022-08-02T04:55:06.222Z,1019.921082
2022-08-02T04:55:47.076Z,1019.898743
2022-08-02T04:56:47.154Z,1019.889587
2022-08-02T04:57:52.585Z,1019.831787
2022-08-02T04:57:53.363Z,1019.831787
2022-08-02T04:58:47.210Z,1019.928955
2022-08-02T04:59:49.450Z,1019.917847
2022-08-02T04:59:54.600Z,1019.917847
2022-08-02T05:00:49.483Z,1019.93042
2022-08-02T05:01:48.458Z,1019.943359
2022-08-02T05:02:49.759Z,1019.98291
2022-08-02T05:03:46.807Z,1020.016541
2022-08-02T05:04:45.430Z,1019.962341
2022-08-02T05:05:40.775Z,1019.954407
2022-08-02T05:06:40.864Z,1019.927307
2022-08-02T05:07:38.952Z,1019.997498
2022-08-02T05:08:40.956Z,1019.962341
2022-08-02T05:09:38.917Z,1019.957581
2022-08-02T05:10:40.152Z,1019.965637
2022-08-02T05:11:38.704Z,1019.995789
2022-08-02T05:12:34.411Z,1019.973389
2022-08-02T05:13:36.064Z,1019.984558
2022-08-02T05:13:58.469Z,1019.984558
2022-08-02T05:13:58.863Z,1019.984558
2022-08-02T05:14:35.771Z,1019.919189
2022-08-02T05:15:33.378Z,1019.920898
2022-08-02T05:16:32.351Z,1019.933594
2022-08-02T05:17:29.289Z,1019.876343
2022-08-02T05:18:33.968Z,1019.903381
2022-08-02T05:19:30.417Z,1019.836365
2022-08-02T05:20:30.118Z,1019.901672
2022-08-02T05:21:29.015Z,1019.87793
2022-08-02T05:22:25.143Z,1019.896912
2022-08-02T05:23:25.320Z,1019.932068
2022-08-02T05:24:20.744Z,1019.962341
2022-08-02T05:25:25.183Z,1019.962341
2022-08-02T05:26:18.674Z,1019.908081
2022-08-02T05:27:22.208Z,1019.908081
2022-08-02T05:28:14.785Z,1019.917603
2022-08-02T05:29:18.235Z,1019.963928
2022-08-02T05:30:11.718Z,1019.93689
2022-08-02T05:30:45.372Z,1019.933594
2022-08-02T05:31:43.752Z,1019.892151
2022-08-02T05:32:41.743Z,1019.861816
2022-08-02T05:34:26.106Z,1019.942444
2022-08-02T05:35:06.489Z,1019.879028
2022-08-02T05:36:04.586Z,1019.896057
2022-08-02T05:37:04.117Z,1019.9151
2022-08-02T05:37:09.735Z,1019.9151
2022-08-02T05:37:59.236Z,1019.90863
2022-08-02T05:38:59.027Z,1019.935791
2022-08-02T05:39:05.012Z,1019.935791
2022-08-02T05:39:56.942Z,1019.905457
2022-08-02T05:40:55.023Z,1020.002991
2022-08-02T05:41:51.463Z,1019.945435
2022-08-02T05:42:46.615Z,1019.888245
2022-08-02T05:43:46.224Z,1019.880127
2022-08-02T05:44:41.825Z,1019.961426
2022-08-02T05:45:41.157Z,1019.926514
2022-08-02T05:46:35.787Z,1019.975952
2022-08-02T05:47:37.084Z,1019.961426
2022-08-02T05:48:34.246Z,1019.888245
2022-08-02T05:49:32.372Z,1019.937744
2022-08-02T05:50:30.661Z,1019.926514
2022-08-02T05:51:25.112Z,1019.907288
2022-08-02T05:52:27.212Z,1019.825989
2022-08-02T05:53:19.741Z,1019.854614
2022-08-02T05:54:19.298Z,1019.824097
2022-08-02T05:55:17.421Z,1019.796997
2022-08-02T05:56:14.174Z,1019.863525
2022-08-02T05:57:11.556Z,1019.806519
2022-08-02T05:59:06.850Z,1019.881348
2022-08-02T06:00:06.539Z,1019.831848
2022-08-02T06:01:01.623Z,1019.832886
2022-08-02T06:02:01.131Z,1019.821716
2022-08-02T06:02:56.454Z,1019.722717
2022-08-02T06:03:59.765Z,1019.854858
2022-08-02T06:04:53.009Z,1019.778381
2022-08-02T06:05:54.333Z,1019.77179
2022-08-02T06:06:47.949Z,1019.730347
2022-08-02T06:08:33.185Z,1019.746704
2022-08-02T06:09:12.640Z,1019.594299
2022-08-02T06:10:12.661Z,1019.643982
2022-08-02T06:11:07.679Z,1019.68335
2022-08-02T06:12:04.881Z,1019.699158
2022-08-02T06:13:04.390Z,1019.69165
2022-08-02T06:13:59.409Z,1019.718811
2022-08-02T06:14:58.080Z,1019.777161
2022-08-02T06:15:56.143Z,1019.719666
2022-08-02T06:16:50.799Z,1019.762878
2022-08-02T06:17:50.615Z,1019.666809
2022-08-02T06:18:52.503Z,1019.647705
2022-08-02T06:19:51.839Z,1019.660217
2022-08-02T06:20:47.503Z,1019.677673
2022-08-02T06:22:31.753Z,1019.670532
2022-08-02T06:22:32.032Z,1019.670532
2022-08-02T06:22:37.543Z,1019.670532
2022-08-02T06:22:43.721Z,1019.665833
2022-08-02T06:23:38.678Z,1019.711304
2022-08-02T06:24:40.941Z,1019.669739
2022-08-02T06:25:49.620Z,1019.733459
2022-08-02T06:25:49.985Z,1019.733459
2022-08-02T06:25:50.888Z,1019.733459
2022-08-02T06:26:36.030Z,1019.723389
2022-08-02T06:27:31.250Z,1019.6203
2022-08-02T06:29:28.498Z,1019.64917
2022-08-02T06:30:23.793Z,1019.667969
2022-08-02T06:31:23.978Z,1019.588379
2022-08-02T06:32:19.254Z,1019.592468
2022-08-02T06:34:14.200Z,1019.582703
2022-08-02T06:35:13.752Z,1019.606201
2022-08-02T06:36:08.711Z,1019.579041
2022-08-02T06:37:08.815Z,1019.572632
2022-08-02T06:39:03.961Z,1019.578003
2022-08-02T06:39:59.348Z,1019.575256
2022-08-02T06:40:59.258Z,1019.579712
2022-08-02T06:41:54.506Z,1019.553528
2022-08-02T06:43:18.207Z,1019.582275
2022-08-02T06:43:58.508Z,1019.653503
2022-08-02T06:44:58.022Z,1019.57782
2022-08-02T06:45:56.828Z,1019.574585
2022-08-02T06:47:08.329Z,1019.574585
2022-08-02T06:47:09.269Z,1019.574585
2022-08-02T06:47:10.872Z,1019.603638
2022-08-02T06:47:11.634Z,1019.603638
2022-08-02T06:47:11.970Z,1019.603638
2022-08-02T06:47:54.912Z,1019.622131
2022-08-02T06:48:51.505Z,1019.507813
2022-08-02T06:49:54.162Z,1019.560486
2022-08-02T06:50:49.031Z,1019.549133
2022-08-02T06:51:48.484Z,1019.526611
2022-08-02T06:53:42.792Z,1019.512085
2022-08-02T06:54:45.940Z,1019.492615
2022-08-02T06:55:43.347Z,1019.470093
2022-08-02T06:56:40.645Z,1019.541077
2022-08-02T06:57:36.821Z,1019.646912
2022-08-02T06:58:38.053Z,1019.640137
2022-08-02T06:59:33.784Z,1019.590454
2022-08-02T07:00:35.084Z,1019.610413
2022-08-02T07:01:38.676Z,1019.628662
2022-08-02T07:01:38.817Z,1019.628662
2022-08-02T07:02:30.719Z,1019.583313
2022-08-02T07:03:30.833Z,1019.654358
2022-08-02T07:04:26.729Z,1019.581909
2022-08-02T07:05:27.661Z,1019.606262
2022-08-02T07:06:23.926Z,1019.556274
2022-08-02T07:07:22.292Z,1019.595703
2022-08-02T07:08:22.847Z,1019.541199
2022-08-02T07:09:20.929Z,1019.553589
2022-08-02T07:10:20.004Z,1019.574158
2022-08-02T07:11:16.117Z,1019.575317
2022-08-02T07:12:19.949Z,1019.579895
2022-08-02T07:13:15.113Z,1019.60022
2022-08-02T07:14:18.024Z,1019.608704
2022-08-02T07:15:11.673Z,1019.594482
2022-08-02T07:16:15.275Z,1019.619629
2022-08-02T07:17:10.378Z,1019.574219
2022-08-02T07:19:07.763Z,1019.614746
2022-08-02T07:20:11.501Z,1019.588806
2022-08-02T07:21:05.845Z,1019.546753
2022-08-02T07:22:33.305Z,1019.528442
2022-08-02T07:23:13.327Z,1019.556458
2022-08-02T07:24:13.910Z,1019.504272
2022-08-02T07:25:09.765Z,1019.41571
2022-08-02T07:26:10.546Z,1019.471191
2022-08-02T07:27:11.522Z,1019.538147
2022-08-02T07:27:12.540Z,1019.538147
2022-08-02T07:28:05.170Z,1019.597107
2022-08-02T07:29:05.734Z,1019.578918
2022-08-02T07:30:01.917Z,1019.568481
2022-08-02T07:31:02.488Z,1019.468262
2022-08-02T07:31:58.645Z,1019.523682
2022-08-02T07:33:56.092Z,1019.478821
2022-08-02T07:34:56.835Z,1019.582397
2022-08-02T07:35:53.156Z,1019.481812
2022-08-02T07:36:54.266Z,1019.483032
2022-08-02T07:38:51.731Z,1019.508667
2022-08-02T07:39:48.419Z,1019.443665
2022-08-02T07:40:49.366Z,1019.460938
2022-08-02T07:41:45.748Z,1019.559204
2022-08-02T07:43:44.182Z,1019.561218
2022-08-02T07:44:49.122Z,1019.483887
2022-08-02T07:45:54.216Z,1019.516418
2022-08-02T07:45:55.751Z,1019.516418
2022-08-02T07:45:59.668Z,1019.516418
2022-08-02T07:46:43.964Z,1019.49115
2022-08-02T07:47:40.492Z,1019.477234
2022-08-02T07:49:38.250Z,1019.459473
2022-08-02T07:50:37.628Z,1019.460205
2022-08-02T07:51:41.111Z,1019.437317
2022-08-02T07:52:35.619Z,1019.371338
2022-08-02T07:53:50.757Z,1019.376282
2022-08-02T07:53:50.771Z,1019.376282
2022-08-02T07:53:51.273Z,1019.376282
2022-08-02T07:54:36.616Z,1019.401062
2022-08-02T07:55:39.641Z,1019.364197
2022-08-02T07:55:39.726Z,1019.364197
2022-08-02T07:56:35.329Z,1019.404785
2022-08-02T07:57:33.316Z,1019.33197
2022-08-02T07:59:30.853Z,1019.274231
2022-08-02T08:00:35.057Z,1019.305969
2022-08-02T08:01:29.465Z,1019.342163
2022-08-02T08:02:33.346Z,1019.268555
2022-08-02T08:03:27.974Z,1019.257141
2022-08-02T08:04:29.644Z,1019.312073
2022-08-02T08:05:26.477Z,1019.253906
2022-08-02T08:06:28.926Z,1019.219543
2022-08-02T08:08:05.084Z,1019.234436
2022-08-02T08:09:03.200Z,1019.18158
2022-08-02T08:10:04.823Z,1019.197449
2022-08-02T08:11:02.140Z,1019.176086
2022-08-02T08:12:04.188Z,1019.207703
2022-08-02T08:13:28.958Z,1019.233521
2022-08-02T08:14:13.438Z,1019.276672
2022-08-02T08:14:16.833Z,1019.276672
2022-08-02T08:15:10.737Z,1019.258057
2022-08-02T08:16:06.728Z,1019.281372
2022-08-02T08:17:05.334Z,1019.23822
2022-08-02T08:18:05.745Z,1019.237976
2022-08-02T08:19:01.885Z,1019.183228
2022-08-02T08:20:02.469Z,1019.171692
2022-08-02T08:20:58.541Z,1019.24231
2022-08-02T08:21:59.222Z,1019.160278
2022-08-02T08:22:55.541Z,1019.222351
2022-08-02T08:23:56.304Z,1019.191956
2022-08-02T08:24:52.919Z,1019.110291
2022-08-02T08:25:50.924Z,1019.173645
2022-08-02T08:26:49.440Z,1019.189514
2022-08-02T08:27:53.217Z,1019.17041
2022-08-02T08:29:48.132Z,1019.128357
2022-08-02T08:30:44.349Z,1019.085999
2022-08-02T08:31:44.706Z,1019.136963
2022-08-02T08:32:40.458Z,1019.17572
2022-08-02T08:34:39.676Z,1019.114014
2022-08-02T08:35:35.739Z,1019.083069
2022-08-02T08:36:39.316Z,1019.126282
2022-08-02T08:37:32.955Z,1019.10321
2022-08-02T08:38:36.400Z,1019.056641
2022-08-02T08:39:30.536Z,1019.037659
2022-08-02T08:40:33.615Z,1019.014893
2022-08-02T08:41:27.927Z,1019.082336
2022-08-02T08:42:28.613Z,1019.06665
2022-08-02T08:44:06.873Z,1019.036499
2022-08-02T08:44:46.642Z,1019.056824
2022-08-02T08:45:44.823Z,1019.049744
2022-08-02T08:45:55.868Z,1019.049744
2022-08-02T08:45:55.992Z,1019.049744
2022-08-02T08:46:43.515Z,1019.038635
2022-08-02T08:47:44.727Z,1019.027466
2022-08-02T08:49:39.219Z,1019.044128
2022-08-02T08:49:52.565Z,1019.044128
2022-08-02T08:49:52.774Z,1019.044128
2022-08-02T08:50:40.211Z,1019.154053
2022-08-02T08:51:35.981Z,1019.072205
2022-08-02T08:52:36.532Z,1019.029053
2022-08-02T08:53:36.958Z,1019.083862
2022-08-02T08:54:33.047Z,1019.083862
2022-08-02T08:55:28.494Z,1019.053284
2022-08-02T08:56:28.908Z,1019.025879
2022-08-02T08:57:24.433Z,1019.099609
2022-08-02T08:59:21.509Z,1019.08075
2022-08-02T09:00:21.633Z,1019.030334
2022-08-02T09:01:17.493Z,1019.046265
2022-08-02T09:02:22.563Z,1019.101929
2022-08-02T09:02:26.159Z,1019.101929
2022-08-02T09:02:28.591Z,1019.101929
2022-08-02T09:04:12.103Z,1019.086426
2022-08-02T09:05:12.562Z,1019.063232
2022-08-02T09:06:08.818Z,1019.055237
2022-08-02T09:07:08.877Z,1018.965454
2022-08-02T09:09:07.385Z,1019.015564
2022-08-02T09:10:00.760Z,1018.941162
2022-08-02T09:10:58.329Z,1018.972656
2022-08-02T09:11:56.736Z,1019.019897
2022-08-02T09:13:54.056Z,1018.976746
2022-08-02T09:14:50.416Z,1018.941162
2022-08-02T09:15:49.555Z,1018.949402
2022-08-02T09:16:45.049Z,1018.859009
2022-08-02T09:17:43.583Z,1018.979919
2022-08-02T09:18:43.390Z,1018.894714
2022-08-02T09:19:38.798Z,1018.925659
2022-08-02T09:19:45.855Z,1018.925659
2022-08-02T09:20:39.432Z,1018.902588
2022-08-02T09:21:34.819Z,1018.867981
2022-08-02T09:22:37.581Z,1018.926453
2022-08-02T09:23:30.317Z,1018.832825
2022-08-02T09:24:32.986Z,1018.922729
2022-08-02T09:25:26.004Z,1018.883789
2022-08-02T09:26:28.727Z,1018.926941
2022-08-02T09:27:52.541Z,1018.872314
2022-08-02T09:29:31.985Z,1018.884521
2022-08-02T09:30:31.558Z,1018.880737
2022-08-02T09:31:27.093Z,1018.846069
2022-08-02T09:32:27.566Z,1018.877258
2022-08-02T09:34:24.054Z,1018.908081
2022-08-02T09:35:19.595Z,1018.935425
2022-08-02T09:36:20.019Z,1018.888794
2022-08-02T09:37:15.551Z,1018.880981
2022-08-02T09:39:11.643Z,1018.912415
2022-08-02T09:40:12.277Z,1018.912476
2022-08-02T09:41:08.343Z,1018.877258
2022-08-02T09:42:08.847Z,1018.944092
2022-08-02T09:44:07.723Z,1018.920959
2022-08-02T09:45:01.243Z,1018.916809
2022-08-02T09:46:01.268Z,1018.936707
2022-08-02T09:46:56.720Z,1018.925232
2022-08-02T09:47:56.945Z,1018.932373
2022-08-02T09:48:52.730Z,1018.924133
2022-08-02T09:49:56.713Z,1018.944092
2022-08-02T09:50:52.250Z,1018.975708
2022-08-02T09:51:48.179Z,1018.936707
2022-08-02T09:52:50.977Z,1018.881958
2022-08-02T09:53:44.565Z,1018.932373
2022-08-02T09:54:47.226Z,1018.983154
2022-08-02T09:55:40.109Z,1018.975708
2022-08-02T09:56:43.335Z,1018.936707
2022-08-02T09:57:36.760Z,1018.944214
2022-08-02T09:59:35.055Z,1018.998901
2022-08-02T10:00:50.716Z,1018.858948
2022-08-02T10:00:51.841Z,1018.858948
2022-08-02T10:00:52.479Z,1018.858948
2022-08-02T10:01:37.177Z,1018.921021
2022-08-02T10:01:38.990Z,1018.921021
2022-08-02T10:02:30.638Z,1018.871643
2022-08-02T10:03:32.949Z,1018.988708
2022-08-02T10:03:37.255Z,1018.988708
2022-08-02T10:03:37.270Z,1018.988708
2022-08-02T10:04:27.150Z,1018.883362
2022-08-02T10:05:22.767Z,1018.876099
2022-08-02T10:06:26.320Z,1018.927063
2022-08-02T10:07:19.667Z,1018.879578
2022-08-02T10:09:16.868Z,1018.945801
2022-08-02T10:10:19.533Z,1018.906372